»·PEaware :: AAL55 KPHX-KSFO

AAL55 :: KPHX-KSFO

FLIGHT INFORMATION

Flight Status: Arrived
Operator:
American Airlines
More flights by this operator :: More flights under this callsign
Pilot: Robert N. (17753)
Aircraft: BOEING 777-200
(B772)
More flights by this aircraft type
Origin: KPHX Phoenix Sky Harbor Intl
United States
Destination: KSFO San Francisco Intl
United States
More flights between these airports :: More routes between these airports
Route: + / BLH050020 PMD J6 AVE SERFR SERFR2
File this flight plan on PilotEdge
Remarks: PBN / A1B1D1S2T1 DOF / 180109 REG / N755SB EET / KZLA0018 KZOA0104 OPR / AAL PER / D RMK / TCAS SIMBRIEF
Altitude:
(Current/Filed)
40,000ft
Speed:
(Current/Filed)
467kts
Departed: 08-Jan-18 09:05 PM
Arrived: 08-Jan-18 10:32 PM
Distance/Time
Traveled:
565nm/1:27
Distance/Time
To Go:
Arrived

Flight Plot

Page will automatically refresh every two minutes.

Flight plan parsing failed; only flown route is shown


Map Options




Map Legend


Flown Route
Filed Route
Departure Airport
Arrival Airport
Navaid (VOR, NDB)
Fix

Horizontal Profiles

Position Reports

Time Latitude Longitude Heading Altitude Ground
Speed
08-Jan-18 20:33 33.438130 -111.993754 225 1148ft 0kts
08-Jan-18 20:34 33.438130 -111.993754 225 1148ft 0kts
08-Jan-18 20:35 33.438130 -111.993754 225 1148ft 0kts
08-Jan-18 20:36 33.438130 -111.993754 225 1148ft 0kts
08-Jan-18 20:37 33.438130 -111.993754 225 1148ft 0kts
08-Jan-18 20:38 33.438130 -111.993754 225 1148ft 0kts
08-Jan-18 20:39 33.438130 -111.993754 225 1148ft 0kts
08-Jan-18 20:40 33.438130 -111.993754 225 1148ft 0kts
08-Jan-18 20:41 33.438130 -111.993754 225 1148ft 0kts
08-Jan-18 20:42 33.438130 -111.993754 225 1148ft 0kts
08-Jan-18 20:43 33.438130 -111.993754 225 1148ft 0kts
08-Jan-18 20:44 33.438130 -111.993754 225 1148ft 0kts
08-Jan-18 20:45 33.438130 -111.993754 225 1148ft 0kts
08-Jan-18 20:46 33.438130 -111.993754 225 1148ft 0kts
08-Jan-18 20:47 33.438130 -111.993754 225 1148ft 0kts
08-Jan-18 20:48 33.438130 -111.993754 225 1148ft 0kts
08-Jan-18 20:49 33.438130 -111.993754 225 1148ft 0kts
08-Jan-18 20:50 33.438130 -111.993754 225 1148ft 0kts
08-Jan-18 20:51 33.438130 -111.993754 225 1148ft 0kts
08-Jan-18 20:52 33.438130 -111.993754 225 1148ft 0kts
08-Jan-18 20:53 33.438130 -111.993754 225 1148ft 0kts
08-Jan-18 20:54 33.438130 -111.993754 225 1148ft 0kts
08-Jan-18 20:55 33.438130 -111.993754 225 1148ft 0kts
08-Jan-18 20:56 33.438130 -111.993754 225 1148ft 0kts
08-Jan-18 20:57 33.438130 -111.993754 225 1148ft 0kts
08-Jan-18 20:58 33.438130 -111.993754 225 1148ft 0kts
08-Jan-18 20:59 33.438130 -111.993754 225 1148ft 0kts
08-Jan-18 21:00 33.438130 -111.993754 225 1148ft 0kts
08-Jan-18 21:01 33.438188 -111.993683 225 1148ft 1kts
08-Jan-18 21:02 33.438498 -111.993185 294 1148ft 0kts
08-Jan-18 21:03 33.438137 -111.993025 6 1148ft 2kts
08-Jan-18 21:04 33.437952 -111.993036 359 1148ft 0kts
08-Jan-18 21:05 33.437953 -111.993036 359 1148ft 0kts
08-Jan-18 21:06 33.437954 -111.993036 359 1148ft 0kts
08-Jan-18 21:07 33.438397 -111.992643 23 1148ft 6kts
08-Jan-18 21:08 33.439481 -111.992417 2 1148ft 0kts
08-Jan-18 21:09 33.439482 -111.992417 2 1148ft 0kts
08-Jan-18 21:10 33.439909 -111.992401 0 1148ft 6kts
08-Jan-18 21:11 33.440845 -111.994713 269 1148ft 44kts
08-Jan-18 21:12 33.440426 -112.051452 268 3003ft 217kts
08-Jan-18 21:13 33.440852 -112.135169 270 6928ft 278kts
08-Jan-18 21:14 33.443820 -112.230742 268 11770ft 298kts
08-Jan-18 21:15 33.446098 -112.339932 266 15902ft 356kts
08-Jan-18 21:16 33.448038 -112.462832 265 20423ft 381kts
08-Jan-18 21:17 33.450006 -112.591833 265 22251ft 390kts
08-Jan-18 21:18 33.451859 -112.725609 264 26198ft 411kts
08-Jan-18 21:19 33.464734 -112.864889 274 29819ft 437kts
08-Jan-18 21:20 33.491325 -113.007496 274 33618ft 427kts
08-Jan-18 21:21 33.516608 -113.143976 273 36730ft 419kts
08-Jan-18 21:22 33.541925 -113.278300 272 39178ft 411kts
08-Jan-18 21:23 33.566918 -113.415813 273 39996ft 435kts
08-Jan-18 21:24 33.592460 -113.554399 273 40023ft 418kts
08-Jan-18 21:25 33.617873 -113.690467 273 40018ft 418kts
08-Jan-18 21:26 33.643076 -113.827332 273 40032ft 419kts
08-Jan-18 21:27 33.668051 -113.963628 273 40022ft 419kts
08-Jan-18 21:28 33.692910 -114.100703 273 40016ft 419kts
08-Jan-18 21:29 33.718208 -114.237433 273 40012ft 419kts
08-Jan-18 21:30 33.744622 -114.374021 275 40007ft 424kts
08-Jan-18 21:31 33.779822 -114.513784 277 40004ft 449kts
08-Jan-18 21:32 33.810357 -114.633242 277 40003ft 448kts
08-Jan-18 21:33 33.852793 -114.800307 277 40002ft 449kts
08-Jan-18 21:34 33.883126 -114.920389 277 40004ft 449kts
08-Jan-18 21:35 33.919290 -115.064280 277 40006ft 450kts
08-Jan-18 21:36 33.961520 -115.233309 278 40013ft 451kts
08-Jan-18 21:37 33.991509 -115.354012 278 40015ft 452kts
08-Jan-18 21:38 34.033312 -115.523197 278 40019ft 452kts
08-Jan-18 21:39 34.063242 -115.645012 277 40024ft 453kts
08-Jan-18 21:40 34.098839 -115.790649 277 40033ft 453kts
08-Jan-18 21:41 34.134316 -115.936616 277 40046ft 453kts
08-Jan-18 21:42 34.169700 -116.083034 277 40061ft 454kts
08-Jan-18 21:43 34.204867 -116.229390 277 40063ft 454kts
08-Jan-18 21:44 34.239983 -116.376385 277 40053ft 455kts
08-Jan-18 21:45 34.273638 -116.518066 277 40042ft 455kts
08-Jan-18 21:46 34.308397 -116.665230 277 40042ft 458kts
08-Jan-18 21:47 34.343322 -116.813975 277 40036ft 459kts
08-Jan-18 21:48 34.378052 -116.962764 277 40025ft 459kts
08-Jan-18 21:49 34.412685 -117.112022 277 39998ft 460kts
08-Jan-18 21:50 34.447075 -117.261110 277 39964ft 462kts
08-Jan-18 21:51 34.481400 -117.410791 277 39951ft 462kts
08-Jan-18 21:52 34.515779 -117.561583 277 39949ft 462kts
08-Jan-18 21:53 34.550143 -117.711764 278 39949ft 465kts
08-Jan-18 21:54 34.585239 -117.862427 277 39965ft 464kts
08-Jan-18 21:55 34.619281 -118.012945 277 39967ft 465kts
08-Jan-18 21:56 34.686731 -118.150554 304 39968ft 499kts
08-Jan-18 21:57 34.779064 -118.277679 301 39969ft 496kts
08-Jan-18 21:58 34.868154 -118.406081 301 39960ft 497kts
08-Jan-18 21:59 34.956932 -118.535533 301 39942ft 497kts
08-Jan-18 22:00 35.039510 -118.669211 292 39934ft 486kts
08-Jan-18 22:01 35.105364 -118.812564 291 39906ft 486kts
08-Jan-18 22:02 35.172528 -118.956677 291 39839ft 486kts
08-Jan-18 22:03 35.240089 -119.099553 291 39801ft 487kts
08-Jan-18 22:04 35.307814 -119.244189 291 39793ft 489kts
08-Jan-18 22:05 35.375052 -119.388587 291 39794ft 489kts
08-Jan-18 22:06 35.442196 -119.533406 291 39801ft 490kts
08-Jan-18 22:07 35.509762 -119.679142 291 39788ft 490kts
08-Jan-18 22:08 35.576688 -119.824929 291 39782ft 490kts
08-Jan-18 22:09 35.643256 -119.971150 289 39773ft 489kts
08-Jan-18 22:10 35.693269 -120.124158 281 39759ft 481kts
08-Jan-18 22:11 35.739472 -120.278934 283 39755ft 482kts
08-Jan-18 22:12 35.787019 -120.433628 283 39751ft 482kts
08-Jan-18 22:13 35.834330 -120.587522 283 39749ft 482kts
08-Jan-18 22:14 35.881441 -120.742514 282 39748ft 483kts
08-Jan-18 22:15 35.926897 -120.892922 281 38250ft 459kts
08-Jan-18 22:16 35.972269 -121.042455 281 34848ft 468kts
08-Jan-18 22:17 36.017378 -121.194062 281 31790ft 464kts
08-Jan-18 22:18 36.064063 -121.340177 294 29345ft 460kts
08-Jan-18 22:19 36.163643 -121.443028 324 26738ft 475kts
08-Jan-18 22:20 36.275284 -121.526244 323 24230ft 461kts
08-Jan-18 22:21 36.382209 -121.610133 323 21815ft 448kts
08-Jan-18 22:22 36.485729 -121.691399 323 20101ft 423kts
08-Jan-18 22:23 36.583140 -121.768342 323 18233ft 410kts
08-Jan-18 22:24 36.678518 -121.844129 323 16274ft 401kts
08-Jan-18 22:25 36.777825 -121.903912 340 14471ft 393kts
08-Jan-18 22:26 36.882443 -121.933502 345 12867ft 379kts
08-Jan-18 22:27 36.980014 -121.962485 341 11379ft 342kts
08-Jan-18 22:28 37.066733 -121.997447 340 10025ft 321kts
08-Jan-18 22:29 37.151752 -122.030987 339 8707ft 319kts
08-Jan-18 22:30 37.236518 -122.064314 340 7394ft 318kts
08-Jan-18 22:31 37.320742 -122.097448 340 6104ft 316kts
08-Jan-18 22:32 37.401918 -122.129329 342 4890ft 287kts
08-Jan-18 22:33 37.477354 -122.158161 347 3840ft 277kts
08-Jan-18 22:34 37.542257 -122.190211 310 2804ft 233kts
08-Jan-18 22:35 37.571170 -122.256219 296 1777ft 202kts
08-Jan-18 22:36 37.593858 -122.310287 296 854ft 151kts
08-Jan-18 22:37 37.611308 -122.356780 295 190ft 150kts
08-Jan-18 22:38 37.624187 -122.388240 298 27ft 36kts
08-Jan-18 22:39 37.625811 -122.393222 204 27ft 4kts
08-Jan-18 22:40 37.624413 -122.391529 119 27ft 7kts
08-Jan-18 22:41 37.623354 -122.390423 153 27ft 0kts
08-Jan-18 22:42 37.621828 -122.387231 118 27ft 19kts
08-Jan-18 22:43 37.619463 -122.381664 118 27ft 16kts
08-Jan-18 22:44 37.616256 -122.379929 206 27ft 11kts
08-Jan-18 22:45 37.616494 -122.381597 330 27ft 1kts
08-Jan-18 22:46 37.616351 -122.382306 26 27ft 4kts
08-Jan-18 22:47 37.616764 -122.382096 23 27ft 0kts
08-Jan-18 22:48 37.616770 -122.382090 24 27ft 0kts
08-Jan-18 22:49 37.616770 -122.382090 24 27ft 0kts
08-Jan-18 22:50 37.616770 -122.382090 24 27ft 0kts
08-Jan-18 22:51 37.616770 -122.382090 24 27ft 0kts

Navigation Log

Ident Type
Flight plan parsing failed, navigation log unavailable